createdAt,value
2017-02-04T00:00:29.365Z,58.75
2017-02-04T00:01:09.899Z,58.65
2017-02-04T00:01:50.390Z,58.46
2017-02-04T00:02:30.922Z,58.75
2017-02-04T00:03:11.379Z,58.55
2017-02-04T00:03:51.932Z,58.65
2017-02-04T00:04:32.404Z,58.65
2017-02-04T00:05:12.898Z,58.55
2017-02-04T00:05:53.399Z,58.84
2017-02-04T00:06:33.868Z,58.46
2017-02-04T00:07:14.357Z,58.75
2017-02-04T00:07:54.906Z,58.65
2017-02-04T00:08:35.344Z,58.84
2017-02-04T00:09:15.850Z,58.84
2017-02-04T00:09:56.439Z,58.84
2017-02-04T00:10:36.891Z,58.84
2017-02-04T00:11:17.377Z,58.65
2017-02-04T00:11:57.866Z,58.94
2017-02-04T00:12:38.327Z,58.84
2017-02-04T00:13:18.848Z,58.46
2017-02-04T00:13:59.274Z,58.84
2017-02-04T00:14:39.761Z,58.84
2017-02-04T00:15:20.274Z,58.55
2017-02-04T00:16:00.769Z,58.94
2017-02-04T00:16:41.296Z,58.55
2017-02-04T00:17:21.805Z,58.36
2017-02-04T00:18:02.288Z,59.03
2017-02-04T00:18:42.792Z,58.65
2017-02-04T00:19:23.274Z,58.84
2017-02-04T00:20:03.829Z,58.65
2017-02-04T00:20:44.292Z,59.22
2017-02-04T00:21:24.811Z,58.81
2017-02-04T00:22:05.278Z,58.55
2017-02-04T00:22:45.748Z,58.46
2017-02-04T00:23:26.430Z,59.03
2017-02-04T00:24:06.703Z,58.81
2017-02-04T00:24:47.201Z,58.84
2017-02-04T00:25:27.648Z,58.65
2017-02-04T00:26:08.188Z,58.46
2017-02-04T00:26:48.674Z,58.84
2017-02-04T00:27:29.170Z,58.46
2017-02-04T00:28:09.606Z,58.46
2017-02-04T00:28:50.119Z,58.65
2017-02-04T00:29:30.599Z,58.55
2017-02-04T00:30:11.090Z,58.55
2017-02-04T00:30:51.539Z,58.55
2017-02-04T00:31:32.050Z,58.46
2017-02-04T00:32:12.524Z,58.46
2017-02-04T00:32:52.972Z,58.36
2017-02-04T00:33:33.465Z,58.36
2017-02-04T00:34:13.964Z,58.46
2017-02-04T00:34:54.483Z,58.26
2017-02-04T00:35:34.938Z,58.46
2017-02-04T00:36:15.468Z,57.79
2017-02-04T00:36:55.959Z,57.98
2017-02-04T00:37:36.402Z,57.86
2017-02-04T00:38:16.924Z,58.17
2017-02-04T00:38:57.521Z,57.86
2017-02-04T00:39:38.034Z,57.7
2017-02-04T00:40:18.575Z,57.79
2017-02-04T00:40:59.043Z,57.89
2017-02-04T00:41:39.513Z,58.24
2017-02-04T00:42:20.028Z,58.17
2017-02-04T00:43:00.520Z,57.89
2017-02-04T00:43:41.023Z,57.98
2017-02-04T00:44:21.436Z,57.7
2017-02-04T00:45:01.927Z,57.79
2017-02-04T00:45:42.432Z,58.07
2017-02-04T00:46:23.109Z,57.6
2017-02-04T00:47:03.630Z,57.86
2017-02-04T00:47:44.129Z,58.52
2017-02-04T00:48:24.589Z,58.52
2017-02-04T00:49:05.177Z,58.43
2017-02-04T00:49:45.678Z,58.33
2017-02-04T00:50:26.144Z,58.52
2017-02-04T00:51:06.704Z,57.67
2017-02-04T00:51:47.156Z,58.17
2017-02-04T00:52:27.740Z,57.7
2017-02-04T00:53:08.212Z,57.89
2017-02-04T00:53:48.678Z,57.89
2017-02-04T00:54:29.172Z,57.5
2017-02-04T00:55:09.671Z,57.86
2017-02-04T00:55:50.115Z,57.79
2017-02-04T00:56:30.606Z,57.86
2017-02-04T00:57:11.134Z,57.79
2017-02-04T00:57:51.856Z,57.5
2017-02-04T00:58:32.317Z,57.6
2017-02-04T00:59:12.765Z,57.89
2017-02-04T00:59:53.236Z,57.7
2017-02-04T01:00:33.704Z,57.67
2017-02-04T01:01:14.270Z,57.89
2017-02-04T01:01:54.747Z,57.95
2017-02-04T01:02:35.255Z,57.95
2017-02-04T01:03:15.773Z,57.79
2017-02-04T01:03:56.239Z,58.07
2017-02-04T01:04:36.745Z,57.57
2017-02-04T01:05:17.223Z,57.48
2017-02-04T01:05:57.986Z,57.5
2017-02-04T01:06:38.517Z,57.12
2017-02-04T01:07:19.069Z,57.28
2017-02-04T01:07:59.500Z,57.31
2017-02-04T01:08:40.009Z,57.41
2017-02-04T01:09:20.469Z,57.41
2017-02-04T01:10:00.963Z,56.93
2017-02-04T01:10:41.447Z,57.22
2017-02-04T01:11:21.974Z,57.22
2017-02-04T01:12:02.442Z,57.31
2017-02-04T01:12:42.926Z,57.19
2017-02-04T01:13:23.413Z,57.38
2017-02-04T01:14:03.916Z,57
2017-02-04T01:14:44.435Z,57.19
2017-02-04T01:15:24.877Z,57.31
2017-02-04T01:16:05.412Z,57.19
2017-02-04T01:16:45.802Z,57.03
2017-02-04T01:17:26.293Z,57.22
2017-02-04T01:18:06.816Z,57.41
2017-02-04T01:18:47.303Z,57.19
2017-02-04T01:19:27.810Z,57.19
2017-02-04T01:20:08.376Z,56.84
2017-02-04T01:20:48.907Z,56.84
2017-02-04T01:21:29.392Z,57.03
2017-02-04T01:22:09.878Z,56.74
2017-02-04T01:22:50.372Z,56.93
2017-02-04T01:23:30.909Z,56.93
2017-02-04T01:24:11.408Z,57.03
2017-02-04T01:24:51.871Z,57.19
2017-02-04T01:25:32.375Z,56.55
2017-02-04T01:26:12.876Z,56.52
2017-02-04T01:26:53.357Z,56.33
2017-02-04T01:27:33.855Z,55.88
2017-02-04T01:28:14.385Z,56.65
2017-02-04T01:28:54.841Z,56.07
2017-02-04T01:29:35.361Z,56.36
2017-02-04T01:30:15.892Z,56.55
2017-02-04T01:30:56.361Z,56.84
2017-02-04T01:31:36.906Z,56.62
2017-02-04T01:32:17.429Z,57.09
2017-02-04T01:32:57.888Z,57.09
2017-02-04T01:33:38.419Z,57
2017-02-04T01:34:18.927Z,56.52
2017-02-04T01:34:59.382Z,56.33
2017-02-04T01:35:39.885Z,57.19
2017-02-04T01:36:20.367Z,56.62
2017-02-04T01:37:00.892Z,56.62
2017-02-04T01:37:41.375Z,56.71
2017-02-04T01:38:21.862Z,56.81
2017-02-04T01:39:02.385Z,56.9
2017-02-04T01:39:42.867Z,56.81
2017-02-04T01:40:23.358Z,56.81
2017-02-04T01:41:03.810Z,56.81
2017-02-04T01:41:44.375Z,56.62
2017-02-04T01:42:25.043Z,56.71
2017-02-04T01:43:05.540Z,56.62
2017-02-04T01:43:46.000Z,57
2017-02-04T01:44:26.544Z,56.71
2017-02-04T01:45:07.007Z,56.43
2017-02-04T01:45:47.507Z,56.9
2017-02-04T01:46:27.994Z,56.52
2017-02-04T01:47:08.443Z,56.81
2017-02-04T01:47:48.927Z,56.9
2017-02-04T01:48:29.454Z,56.62
2017-02-04T01:49:09.907Z,56.71
2017-02-04T01:49:50.443Z,56.71
2017-02-04T01:50:30.897Z,57
2017-02-04T01:51:11.449Z,56.9
2017-02-04T01:51:51.898Z,57
2017-02-04T01:52:32.443Z,56.81
2017-02-04T01:53:12.878Z,57.09
2017-02-04T01:53:53.364Z,56.9
2017-02-04T01:54:33.861Z,56.9
2017-02-04T01:55:14.373Z,56.81
2017-02-04T01:55:54.826Z,56.9
2017-02-04T01:56:35.408Z,56.52
2017-02-04T01:57:15.859Z,56.33
2017-02-04T01:57:56.391Z,56.62
2017-02-04T01:58:36.865Z,56.62
2017-02-04T01:59:17.315Z,57.19
2017-02-04T01:59:57.821Z,56.9
2017-02-04T02:00:38.302Z,56.81
2017-02-04T02:01:18.810Z,56.81
2017-02-04T02:01:59.312Z,56.62
2017-02-04T02:02:39.817Z,56.81
2017-02-04T02:03:20.269Z,56.71
2017-02-04T02:04:00.738Z,57.09
2017-02-04T02:04:41.274Z,57.19
2017-02-04T02:05:21.726Z,57.09
2017-02-04T02:06:02.227Z,57.19
2017-02-04T02:06:42.739Z,56.9
2017-02-04T02:07:23.269Z,57.09
2017-02-04T02:08:03.898Z,56.71
2017-02-04T02:08:44.313Z,57.48
2017-02-04T02:09:24.790Z,57.28
2017-02-04T02:10:05.338Z,56.9
2017-02-04T02:10:45.764Z,57.28
2017-02-04T02:11:26.254Z,57.28
2017-02-04T02:12:06.754Z,57.28
2017-02-04T02:12:47.278Z,57.28
2017-02-04T02:13:27.738Z,57.38
2017-02-04T02:14:08.247Z,56.9
2017-02-04T02:14:48.701Z,56.9
2017-02-04T02:15:29.234Z,57.19
2017-02-04T02:16:09.665Z,56.93
2017-02-04T02:16:50.205Z,57
2017-02-04T02:17:30.718Z,57.12
2017-02-04T02:18:11.133Z,57
2017-02-04T02:18:51.695Z,57.67
2017-02-04T02:19:32.217Z,57.19
2017-02-04T02:20:12.700Z,57.48
2017-02-04T02:20:53.149Z,57
2017-02-04T02:21:33.634Z,57.09
2017-02-04T02:22:14.187Z,57.28
2017-02-04T02:22:54.589Z,57.28
2017-02-04T02:23:35.114Z,57.28
2017-02-04T02:24:15.622Z,57.03
2017-02-04T02:24:56.118Z,57.12
2017-02-04T02:25:36.644Z,57.28
2017-02-04T02:26:17.093Z,57.09
2017-02-04T02:26:57.594Z,57.28
2017-02-04T02:27:38.078Z,57.48
2017-02-04T02:28:18.544Z,57.41
2017-02-04T02:28:59.000Z,57.19
2017-02-04T02:29:39.484Z,57.57
2017-02-04T02:30:19.971Z,57.57
2017-02-04T02:32:33.313Z,57.28
2017-02-04T02:33:13.785Z,57.19
2017-02-04T02:33:54.306Z,57.6
2017-02-04T02:34:34.795Z,57
2017-02-04T02:35:15.268Z,57
2017-02-04T02:35:55.760Z,57.28
2017-02-04T02:36:36.243Z,57.48
2017-02-04T02:37:16.766Z,57.28
2017-02-04T02:37:57.319Z,57.57
2017-02-04T02:38:37.877Z,57.38
2017-02-04T02:39:18.343Z,57.19
2017-02-04T02:39:58.869Z,57.28
2017-02-04T02:40:39.336Z,57.28
2017-02-04T02:41:19.851Z,57.67
2017-02-04T02:42:00.365Z,57.95
2017-02-04T02:42:40.817Z,57.95
2017-02-04T02:43:21.365Z,58.52
2017-02-04T02:44:01.820Z,57.95
2017-02-04T02:44:42.355Z,57.67
2017-02-04T02:45:22.877Z,57.95
2017-02-04T02:46:03.367Z,57.48
2017-02-04T02:46:43.880Z,57.48
2017-02-04T02:47:24.345Z,57.38
2017-02-04T02:48:04.865Z,58.62
2017-02-04T02:48:45.330Z,57.57
2017-02-04T02:49:25.885Z,57.48
2017-02-04T02:50:06.330Z,57.67
2017-02-04T02:50:46.857Z,57.57
2017-02-04T02:51:27.334Z,57.67
2017-02-04T02:52:07.827Z,58.62
2017-02-04T02:52:48.365Z,58.43
2017-02-04T02:53:28.809Z,57.95
2017-02-04T02:54:09.317Z,57.38
2017-02-04T02:54:49.833Z,57.38
2017-02-04T02:55:30.267Z,57.28
2017-02-04T02:56:10.962Z,57.48
2017-02-04T02:56:51.445Z,57.28
2017-02-04T02:57:31.896Z,57.09
2017-02-04T02:58:12.432Z,57.19
2017-02-04T02:58:52.920Z,57.28
2017-02-04T02:59:33.419Z,57.09
2017-02-04T03:00:13.939Z,57.38
2017-02-04T03:00:54.397Z,57.28
2017-02-04T03:01:34.866Z,57.28
2017-02-04T03:02:15.361Z,57.38
2017-02-04T03:02:55.851Z,57.38
2017-02-04T03:03:36.415Z,57.28
2017-02-04T03:04:16.843Z,57.38
2017-02-04T03:04:57.374Z,57.38
2017-02-04T03:05:37.900Z,57.48
2017-02-04T03:06:18.441Z,57.67
2017-02-04T03:06:58.898Z,57.76
2017-02-04T03:07:39.422Z,58.14
2017-02-04T03:08:19.986Z,58.43
2017-02-04T03:09:00.455Z,58.52
2017-02-04T03:09:40.897Z,58.14
2017-02-04T03:10:21.412Z,58.52
2017-02-04T03:11:01.858Z,58.24
2017-02-04T03:11:42.363Z,58.52
2017-02-04T03:12:22.918Z,58.43
2017-02-04T03:13:03.409Z,58.43
2017-02-04T03:13:43.937Z,58.24
2017-02-04T03:14:24.435Z,58.52
2017-02-04T03:15:04.996Z,58.62
2017-02-04T03:15:45.814Z,58.81
2017-02-04T03:16:26.287Z,58.52
2017-02-04T03:17:06.811Z,59
2017-02-04T03:17:47.271Z,58.62
2017-02-04T03:18:27.796Z,58.81
2017-02-04T03:19:08.310Z,58.72
2017-02-04T03:19:48.791Z,58.43
2017-02-04T03:20:29.257Z,58.33
2017-02-04T03:21:09.741Z,58.52
2017-02-04T03:21:50.318Z,58.43
2017-02-04T03:22:30.706Z,57.76
2017-02-04T03:23:11.197Z,57.57
2017-02-04T03:23:51.691Z,57.28
2017-02-04T03:24:32.177Z,57.28
2017-02-04T03:25:12.675Z,57.57
2017-02-04T03:25:53.173Z,57.48
2017-02-04T03:26:33.715Z,57.48
2017-02-04T03:27:14.194Z,57.76
2017-02-04T03:27:54.712Z,57.76
2017-02-04T03:28:35.165Z,58.33
2017-02-04T03:29:15.643Z,58.43
2017-02-04T03:29:56.165Z,57.67
2017-02-04T03:30:36.633Z,58.04
2017-02-04T03:31:17.165Z,58.52
2017-02-04T03:31:57.646Z,58.52
2017-02-04T03:32:38.141Z,58.33
2017-02-04T03:33:18.583Z,58.62
2017-02-04T03:33:59.067Z,58.33
2017-02-04T03:34:39.547Z,58.21
2017-02-04T03:35:20.063Z,58.81
2017-02-04T03:36:00.603Z,58.81
2017-02-04T03:37:58.795Z,58.62
2017-02-04T03:38:39.252Z,58.24
2017-02-04T03:39:19.754Z,58.4
2017-02-04T03:40:00.245Z,58.5
2017-02-04T03:40:40.794Z,58.78
2017-02-04T03:41:21.259Z,58.78
2017-02-04T03:42:01.770Z,58.59
2017-02-04T03:42:42.249Z,58.97
2017-02-04T03:43:22.753Z,58.59
2017-02-04T03:44:03.229Z,58.87
2017-02-04T03:44:43.677Z,58.87
2017-02-04T03:45:24.129Z,58.78
2017-02-04T03:46:04.683Z,58.59
2017-02-04T03:46:45.131Z,58.59
2017-02-04T03:47:25.591Z,58.59
2017-02-04T03:48:06.160Z,58.69
2017-02-04T03:48:46.604Z,58.78
2017-02-04T03:49:27.131Z,59.06
2017-02-04T03:50:07.630Z,58.78
2017-02-04T03:50:48.089Z,59.35
2017-02-04T03:51:28.548Z,58.87
2017-02-04T03:52:09.071Z,58.97
2017-02-04T03:52:49.563Z,58.69
2017-02-04T03:53:30.071Z,58.78
2017-02-04T03:54:10.545Z,58.97
2017-02-04T03:56:28.886Z,58.87
2017-02-04T03:57:09.357Z,59.35
2017-02-04T03:57:49.839Z,59.26
2017-02-04T03:58:30.332Z,59.06
2017-02-04T03:59:10.836Z,58.97
2017-02-04T03:59:51.348Z,59.06
2017-02-04T04:00:31.826Z,59.26
2017-02-04T04:01:12.299Z,59.16
2017-02-04T04:01:52.809Z,59.45
2017-02-04T04:02:33.303Z,59.45
2017-02-04T04:03:13.755Z,59.64
2017-02-04T04:03:54.249Z,59.54
2017-02-04T04:04:34.682Z,59.54
2017-02-04T04:05:15.179Z,59.35
2017-02-04T04:05:55.694Z,59.26
2017-02-04T04:06:36.170Z,59.74
2017-02-04T04:07:16.677Z,59.26
2017-02-04T04:07:57.207Z,59.83
2017-02-04T04:08:37.685Z,59.92
2017-02-04T04:09:18.176Z,59.06
2017-02-04T04:09:58.645Z,59.26
2017-02-04T04:10:39.159Z,59.64
2017-02-04T04:11:19.625Z,58.94
2017-02-04T04:12:00.094Z,59.45
2017-02-04T04:12:40.630Z,59.61
2017-02-04T04:13:21.110Z,59.35
2017-02-04T04:14:01.620Z,59.54
2017-02-04T04:14:42.093Z,59.26
2017-02-04T04:15:22.551Z,59.74
2017-02-04T04:16:03.041Z,59.92
2017-02-04T04:16:43.576Z,59.92
2017-02-04T04:18:56.795Z,60.3
2017-02-04T04:19:37.298Z,60.11
2017-02-04T04:20:17.775Z,59.92
2017-02-04T04:20:58.302Z,59.92
2017-02-04T04:21:38.753Z,59.83
2017-02-04T04:22:19.286Z,59.92
2017-02-04T04:22:59.755Z,60.3
2017-02-04T04:23:40.246Z,60.49
2017-02-04T04:24:20.749Z,59.83
2017-02-04T04:25:01.274Z,59.83
2017-02-04T04:25:41.732Z,59.54
2017-02-04T04:26:22.233Z,59.74
2017-02-04T04:27:02.672Z,59.92
2017-02-04T04:27:43.159Z,59.45
2017-02-04T04:28:23.729Z,59.54
2017-02-04T04:29:04.184Z,59.35
2017-02-04T04:29:44.656Z,59.64
2017-02-04T04:30:25.150Z,59.74
2017-02-04T04:31:05.628Z,59.83
2017-02-04T04:31:46.466Z,59.74
2017-02-04T04:32:26.970Z,60.3
2017-02-04T04:33:07.519Z,60.02
2017-02-04T04:33:47.977Z,60.59
2017-02-04T04:34:28.457Z,60.21
2017-02-04T04:35:08.946Z,60.11
2017-02-04T04:35:49.429Z,59.54
2017-02-04T04:36:29.896Z,59.74
2017-02-04T04:37:10.392Z,59.83
2017-02-04T04:37:50.888Z,59.54
2017-02-04T04:38:31.376Z,59.89
2017-02-04T04:39:11.866Z,59.92
2017-02-04T04:39:52.371Z,60.3
2017-02-04T04:40:32.899Z,60.78
2017-02-04T04:41:13.469Z,60.21
2017-02-04T04:41:53.900Z,60.3
2017-02-04T04:44:12.337Z,59.83
2017-02-04T04:44:52.856Z,60.11
2017-02-04T04:45:33.399Z,59.74
2017-02-04T04:46:13.913Z,60.3
2017-02-04T04:46:54.390Z,60.49
2017-02-04T04:47:34.855Z,60.59
2017-02-04T04:48:15.321Z,60.69
2017-02-04T04:48:55.790Z,60.49
2017-02-04T04:49:36.353Z,60.59
2017-02-04T04:51:29.570Z,59.83
2017-02-04T04:52:10.064Z,60.69
2017-02-04T04:52:50.552Z,60.56
2017-02-04T04:53:31.035Z,60.69
2017-02-04T04:54:12.337Z,60.3
2017-02-04T04:54:52.797Z,60.59
2017-02-04T04:55:33.322Z,60.56
2017-02-04T04:56:13.803Z,60.27
2017-02-04T04:56:54.281Z,60.4
2017-02-04T04:57:34.808Z,60.37
2017-02-04T04:58:15.340Z,60.27
2017-02-04T04:58:55.824Z,60.59
2017-02-04T04:59:36.291Z,60.66
2017-02-04T05:00:16.800Z,60.59
2017-02-04T05:00:57.275Z,60.59
2017-02-04T05:01:37.800Z,59.99
2017-02-04T05:02:18.387Z,60.27
2017-02-04T05:02:58.937Z,60.56
2017-02-04T05:03:39.385Z,60.66
2017-02-04T05:04:19.907Z,60.56
2017-02-04T05:05:00.433Z,60.66
2017-02-04T05:05:40.918Z,60.37
2017-02-04T05:06:21.440Z,60.66
2017-02-04T05:07:01.945Z,60.56
2017-02-04T05:07:42.427Z,60.46
2017-02-04T05:08:22.948Z,60.56
2017-02-04T05:09:03.494Z,61.22
2017-02-04T05:09:43.937Z,60.66
2017-02-04T05:10:24.425Z,60.46
2017-02-04T05:11:04.950Z,60.66
2017-02-04T05:11:45.438Z,60.66
2017-02-04T05:12:25.970Z,60.46
2017-02-04T05:13:06.407Z,60.56
2017-02-04T05:13:46.893Z,59.7
2017-02-04T05:14:27.350Z,59.89
2017-02-04T05:15:07.928Z,59.99
2017-02-04T05:15:48.367Z,60.27
2017-02-04T05:16:28.861Z,60.08
2017-02-04T05:17:09.338Z,59.51
2017-02-04T05:17:49.847Z,59.7
2017-02-04T05:18:30.365Z,59.51
2017-02-04T05:19:10.861Z,59.7
2017-02-04T05:19:51.312Z,59.7
2017-02-04T05:20:31.791Z,60.37
2017-02-04T05:21:12.316Z,59.8
2017-02-04T05:21:52.827Z,59.42
2017-02-04T05:22:33.299Z,59.7
2017-02-04T05:23:13.887Z,59.8
2017-02-04T05:23:54.314Z,59.42
2017-02-04T05:24:34.800Z,59.23
2017-02-04T05:25:15.327Z,58.94
2017-02-04T05:25:55.794Z,58.75
2017-02-04T05:26:36.314Z,59.23
2017-02-04T05:27:16.791Z,59.7
2017-02-04T05:27:57.239Z,59.42
2017-02-04T05:28:37.755Z,59.13
2017-02-04T05:29:18.247Z,58.84
2017-02-04T05:29:58.778Z,58.84
2017-02-04T05:30:39.339Z,58.65
2017-02-04T05:31:19.807Z,58.75
2017-02-04T05:32:00.311Z,58.84
2017-02-04T05:32:40.801Z,58.75
2017-02-04T05:33:21.348Z,58.65
2017-02-04T05:34:01.776Z,58.84
2017-02-04T05:34:42.309Z,58.47
2017-02-04T05:35:22.787Z,58.65
2017-02-04T05:36:03.323Z,59.42
2017-02-04T05:36:43.756Z,58.75
2017-02-04T05:37:24.239Z,58.56
2017-02-04T05:38:04.742Z,58.56
2017-02-04T05:38:45.224Z,58.65
2017-02-04T05:39:25.730Z,58.84
2017-02-04T05:40:06.183Z,58.84
2017-02-04T05:40:46.711Z,58.56
2017-02-04T05:41:27.151Z,58.75
2017-02-04T05:42:07.698Z,58.56
2017-02-04T05:42:48.239Z,58.84
2017-02-04T05:43:28.668Z,58.28
2017-02-04T05:44:09.191Z,58.47
2017-02-04T05:44:49.672Z,58.28
2017-02-04T05:45:30.159Z,58.47
2017-02-04T05:46:10.647Z,58.37
2017-02-04T05:46:51.173Z,58.65
2017-02-04T05:47:31.687Z,58.47
2017-02-04T05:48:12.240Z,58.37
2017-02-04T05:48:52.711Z,57.8
2017-02-04T05:49:33.284Z,57.7
2017-02-04T05:50:13.717Z,57.8
2017-02-04T05:50:54.202Z,58.18
2017-02-04T05:51:34.740Z,57.42
2017-02-04T05:52:15.210Z,57.42
2017-02-04T05:52:55.692Z,57.51
2017-02-04T05:53:36.187Z,57.51
2017-02-04T05:54:16.741Z,57.8
2017-02-04T05:54:57.156Z,57.32
2017-02-04T05:55:37.650Z,57.42
2017-02-04T05:56:18.131Z,57.42
2017-02-04T05:56:58.633Z,57.51
2017-02-04T05:57:39.124Z,57.32
2017-02-04T05:58:19.617Z,57.42
2017-02-04T05:59:00.146Z,57.6
2017-02-04T05:59:40.659Z,57.51
2017-02-04T06:00:21.094Z,57.89
2017-02-04T06:01:01.630Z,58.47
2017-02-04T06:01:42.093Z,58.28
2017-02-04T06:02:22.558Z,58.28
2017-02-04T06:03:03.212Z,58.28
2017-02-04T06:03:43.638Z,57.89
2017-02-04T06:04:24.146Z,58.47
2017-02-04T06:05:04.645Z,57.6
2017-02-04T06:05:45.106Z,57.8
2017-02-04T06:06:25.575Z,58.47
2017-02-04T06:07:06.097Z,58.37
2017-02-04T06:07:46.633Z,58.28
2017-02-04T06:08:27.118Z,58.28
2017-02-04T06:09:07.624Z,58.37
2017-02-04T06:09:48.099Z,58.65
2017-02-04T06:10:28.581Z,57.8
2017-02-04T06:11:09.086Z,57.2
2017-02-04T06:11:49.659Z,57.42
2017-02-04T06:12:30.156Z,57.04
2017-02-04T06:13:10.616Z,57.23
2017-02-04T06:13:51.116Z,57.23
2017-02-04T06:14:31.655Z,57.13
2017-02-04T06:15:12.149Z,57.42
2017-02-04T06:15:52.580Z,57.8
2017-02-04T06:16:33.194Z,57.7
2017-02-04T06:17:13.705Z,58.08
2017-02-04T06:17:54.181Z,58.18
2017-02-04T06:18:36.094Z,57.7
2017-02-04T06:19:16.787Z,57.89
2017-02-04T06:19:57.398Z,57.8
2017-02-04T06:20:37.952Z,57.8
2017-02-04T06:21:18.460Z,57.8
2017-02-04T06:21:58.972Z,57.42
2017-02-04T06:22:39.505Z,57.51
2017-02-04T06:23:19.946Z,56.85
2017-02-04T06:24:00.459Z,57.42
2017-02-04T06:24:41.097Z,57.23
2017-02-04T06:25:21.582Z,57.42
2017-02-04T06:26:02.080Z,57.42
2017-02-04T06:26:42.525Z,57.32
2017-02-04T06:27:23.004Z,57.23
2017-02-04T06:28:03.509Z,57.42
2017-02-04T06:28:44.001Z,57.7
2017-02-04T06:29:24.545Z,57.87
2017-02-04T06:30:05.027Z,57.87
2017-02-04T06:30:45.543Z,57.51
2017-02-04T06:31:26.045Z,57.32
2017-02-04T06:32:06.643Z,57.6
2017-02-04T06:32:47.190Z,57.6
2017-02-04T06:33:27.645Z,57.51
2017-02-04T06:34:08.143Z,57.04
2017-02-04T06:34:48.603Z,57.6
2017-02-04T06:35:29.311Z,58.18
2017-02-04T06:36:09.622Z,57.77
2017-02-04T06:36:50.117Z,57.7
2017-02-04T06:37:30.564Z,57.58
2017-02-04T06:38:11.080Z,58.34
2017-02-04T06:38:51.547Z,58.34
2017-02-04T06:39:32.058Z,58.44
2017-02-04T06:40:12.744Z,58.08
2017-02-04T06:40:53.252Z,58.18
2017-02-04T06:41:33.693Z,58.47
2017-02-04T06:42:14.200Z,58.62
2017-02-04T06:42:54.691Z,58.53
2017-02-04T06:43:35.173Z,58.56
2017-02-04T06:44:15.654Z,57.77
2017-02-04T06:44:56.173Z,57.6
2017-02-04T06:45:36.648Z,57.87
2017-02-04T06:46:17.265Z,58.53
2017-02-04T06:46:57.697Z,57.89
2017-02-04T06:47:38.174Z,58.56
2017-02-04T06:48:18.640Z,57.39
2017-02-04T06:48:59.146Z,57.2
2017-02-04T06:49:39.704Z,57.87
2017-02-04T06:50:20.185Z,57.89
2017-02-04T06:51:00.672Z,57.89
2017-02-04T06:51:41.196Z,57.6
2017-02-04T06:52:21.639Z,57.67
2017-02-04T06:53:02.137Z,57.77
2017-02-04T06:53:42.646Z,58.34
2017-02-04T06:54:23.177Z,58.28
2017-02-04T06:55:03.605Z,58.53
2017-02-04T06:55:44.158Z,58.34
2017-02-04T06:56:24.634Z,58.44
2017-02-04T06:57:05.169Z,58.72
2017-02-04T06:57:45.612Z,58.84
2017-02-04T06:58:26.206Z,58.81
2017-02-04T06:59:06.671Z,58.91
2017-02-04T06:59:47.213Z,58.53
2017-02-04T07:00:27.703Z,58.53
2017-02-04T07:01:08.144Z,58.44
2017-02-04T07:01:48.614Z,58.84
2017-02-04T07:02:29.146Z,58.84
2017-02-04T07:03:09.669Z,58.75
2017-02-04T07:03:50.072Z,58.37
2017-02-04T07:04:30.587Z,58.56
2017-02-04T07:05:11.080Z,57.48
2017-02-04T07:05:51.565Z,58.56
2017-02-04T07:06:32.235Z,58.56
2017-02-04T07:07:12.721Z,58.47
2017-02-04T07:07:53.176Z,58.28
2017-02-04T07:08:33.723Z,58.37
2017-02-04T07:09:14.178Z,58.47
2017-02-04T07:09:54.688Z,58.65
2017-02-04T07:10:35.166Z,57.8
2017-02-04T07:11:15.710Z,57.8
2017-02-04T07:11:56.145Z,58.08
2017-02-04T07:12:36.620Z,58.18
2017-02-04T07:13:17.140Z,57.7
2017-02-04T07:13:57.600Z,57.89
2017-02-04T07:14:38.107Z,58.47
2017-02-04T07:15:18.596Z,58.47
2017-02-04T07:15:59.263Z,58.47
2017-02-04T07:16:39.837Z,58.47
2017-02-04T07:17:20.228Z,58.47
2017-02-04T07:18:00.787Z,58.28
2017-02-04T07:18:41.211Z,58.18
2017-02-04T07:19:21.775Z,58.37
2017-02-04T07:20:02.235Z,58.37
2017-02-04T07:20:42.762Z,58.56
2017-02-04T07:21:23.228Z,58.47
2017-02-04T07:22:03.737Z,58.53
2017-02-04T07:22:44.271Z,58.56
2017-02-04T07:23:24.875Z,58.91
2017-02-04T07:24:05.333Z,58.72
2017-02-04T07:24:45.714Z,58.91
2017-02-04T07:25:26.397Z,58.28
2017-02-04T07:26:06.893Z,58.37
2017-02-04T07:26:47.299Z,58.47
2017-02-04T07:27:27.847Z,58.56
2017-02-04T07:28:08.350Z,58.47
2017-02-04T07:28:48.856Z,58.28
2017-02-04T07:29:29.358Z,58.28
2017-02-04T07:30:09.798Z,58.37
2017-02-04T07:30:50.498Z,57.6
2017-02-04T07:31:30.846Z,58.47
2017-02-04T07:32:11.274Z,58.37
2017-02-04T07:32:51.797Z,58.47
2017-02-04T07:33:32.260Z,58.56
2017-02-04T07:34:12.785Z,58.47
2017-02-04T07:34:53.223Z,58.37
2017-02-04T07:35:33.692Z,58.56
2017-02-04T07:36:14.226Z,58.56
2017-02-04T07:36:54.683Z,58.37
2017-02-04T07:37:35.208Z,58.56
2017-02-04T07:38:15.666Z,57.89
2017-02-04T07:38:56.182Z,57.6
2017-02-04T07:39:36.657Z,57.89
2017-02-04T07:40:17.130Z,57.7
2017-02-04T07:40:57.647Z,57.51
2017-02-04T07:41:38.182Z,57.32
2017-02-04T07:42:18.747Z,57.6
2017-02-04T07:42:59.206Z,57.42
2017-02-04T07:43:39.697Z,57.42
2017-02-04T07:44:20.160Z,57.23
2017-02-04T07:45:00.651Z,57.51
2017-02-04T07:45:41.203Z,57.51
2017-02-04T07:46:21.687Z,57.8
2017-02-04T07:47:02.156Z,57.51
2017-02-04T07:47:42.685Z,57.6
2017-02-04T07:48:23.115Z,57.51
2017-02-04T07:50:16.301Z,57.13
2017-02-04T07:50:56.834Z,57.32
2017-02-04T07:51:37.435Z,57.42
2017-02-04T07:52:18.062Z,56.85
2017-02-04T07:52:58.517Z,57.23
2017-02-04T07:53:39.102Z,57.42
2017-02-04T07:54:19.617Z,57.32
2017-02-04T07:55:00.164Z,57.23
2017-02-04T07:55:40.562Z,56.65
2017-02-04T07:56:21.064Z,56.65
2017-02-04T07:57:01.553Z,57.04
2017-02-04T07:59:15.874Z,56.94
2017-02-04T08:00:09.302Z,56.65
2017-02-04T08:04:14.322Z,56.27
2017-02-04T08:05:05.537Z,56.09
2017-02-04T08:07:20.345Z,55.7
2017-02-04T08:08:00.909Z,56.18
2017-02-04T08:08:41.754Z,56.18
2017-02-04T08:09:22.367Z,56.3
2017-02-04T08:10:02.896Z,56.18
2017-02-04T08:10:43.453Z,56.3
2017-02-04T08:11:23.891Z,56.27
2017-02-04T08:12:04.408Z,56.97
2017-02-04T08:12:44.905Z,56.75
2017-02-04T08:13:26.271Z,56.78
2017-02-04T08:14:07.355Z,56.68
2017-02-04T08:14:48.009Z,56.59
2017-02-04T08:16:46.394Z,57.26
2017-02-04T08:17:27.093Z,56.87
2017-02-04T08:18:07.771Z,56.87
2017-02-04T08:18:48.598Z,57.26
2017-02-04T08:19:29.046Z,56.87
2017-02-04T08:20:09.734Z,56.11
2017-02-04T08:20:50.193Z,56.49
2017-02-04T08:21:30.919Z,56.02
2017-02-04T08:22:11.473Z,56.11
2017-02-04T08:22:51.908Z,56.59
2017-02-04T08:23:32.442Z,56.85
2017-02-04T08:24:12.976Z,56.78
2017-02-04T08:26:26.412Z,55.54
2017-02-04T08:27:06.942Z,55.54
2017-02-04T08:27:47.446Z,55.73
2017-02-04T08:28:27.977Z,55.44
2017-02-04T08:29:08.476Z,55.92
2017-02-04T08:29:49.259Z,55.83
2017-02-04T08:30:29.758Z,56.11
2017-02-04T08:31:11.860Z,55.92
2017-02-04T08:31:52.453Z,56.02
2017-02-04T08:32:32.868Z,55.54
2017-02-04T08:33:13.354Z,55.44
2017-02-04T08:33:53.977Z,54.88
2017-02-04T08:34:34.468Z,55.07
2017-02-04T08:35:14.972Z,55.73
2017-02-04T08:35:55.449Z,55.54
2017-02-04T08:36:36.024Z,55.16
2017-02-04T08:37:16.655Z,54.88
2017-02-04T08:37:57.115Z,55.44
2017-02-04T08:38:37.632Z,56.02
2017-02-04T08:39:18.099Z,55.92
2017-02-04T08:39:58.658Z,54.97
2017-02-04T08:40:39.076Z,55.07
2017-02-04T08:41:19.621Z,55.16
2017-02-04T08:42:00.137Z,54.88
2017-02-04T08:42:40.569Z,55.07
2017-02-04T08:43:21.129Z,55.16
2017-02-04T08:44:01.595Z,55.16
2017-02-04T08:44:42.144Z,54.68
2017-02-04T08:45:22.609Z,55.16
2017-02-04T08:46:03.066Z,54.97
2017-02-04T08:46:43.564Z,55.26
2017-02-04T08:47:24.068Z,54.88
2017-02-04T08:48:04.537Z,54.88
2017-02-04T08:48:45.011Z,54.97
2017-02-04T08:49:25.961Z,54.97
2017-02-04T08:50:06.770Z,55.07
2017-02-04T08:50:47.219Z,55.16
2017-02-04T08:51:27.710Z,55.38
2017-02-04T08:52:08.663Z,54.88
2017-02-04T08:52:49.022Z,55.28
2017-02-04T08:53:29.538Z,55.38
2017-02-04T08:54:09.980Z,55.28
2017-02-04T08:54:50.509Z,55.28
2017-02-04T08:55:30.974Z,55.28
2017-02-04T08:56:11.651Z,55.28
2017-02-04T08:56:52.067Z,54.61
2017-02-04T08:57:32.567Z,54.61
2017-02-04T08:58:13.059Z,55.09
2017-02-04T08:58:53.563Z,55
2017-02-04T08:59:34.067Z,54.52
2017-02-04T09:00:14.573Z,54.14
2017-02-04T09:00:55.075Z,54.14
2017-02-04T09:01:35.884Z,53.95
2017-02-04T09:02:16.360Z,53.76
2017-02-04T09:02:56.853Z,53.56
2017-02-04T09:03:37.401Z,53.95
2017-02-04T09:04:17.962Z,53.85